Time;durP1;ratioP1;P1;durP2;ratioP2;P2;SDS_P1;SDS_P2;PMS_P1;PMS_P2;Temp;Humidity;BMP_temperature;BMP_pressure;BME280_temperature;BME280_humidity;BME280_pressure;Samples;Min_cycle;Max_cycle;Signal;HPM_P1;HPM_P2
2022/08/29 00:01:08;;;;;;;9.10;4.80;;;;;;;25.01;48.74;100264.23;117200;1186;22654;-66
2022/08/29 00:03:36;;;;;;;17.40;4.80;;;;;;;24.97;49.26;100260.77;117245;1182;23475;-66
2022/08/29 00:06:06;;;;;;;15.00;4.90;;;;;;;24.92;49.13;100260.80;117340;1186;23446;-60
2022/08/29 00:08:33;;;;;;;12.60;4.80;;;;;;;24.89;49.19;100261.55;117347;1185;21859;-66
2022/08/29 00:11:00;;;;;;;13.90;4.50;;;;;;;24.88;49.28;100259.86;117220;1183;22728;-60
2022/08/29 00:13:27;;;;;;;7.30;4.40;;;;;;;24.85;49.11;100260.08;117080;1186;22760;-60
2022/08/29 00:15:54;;;;;;;15.00;5.20;;;;;;;24.83;49.34;100261.46;117337;1186;21950;-66
2022/08/29 00:18:21;;;;;;;14.80;4.80;;;;;;;24.81;49.50;100261.59;117281;1182;23364;-60
2022/08/29 00:20:50;;;;;;;14.40;5.10;;;;;;;24.78;49.49;100263.20;117195;1187;21856;-66
2022/08/29 00:23:17;;;;;;;15.10;4.80;;;;;;;24.77;49.34;100261.50;117273;1183;22629;-66
2022/08/29 00:25:44;;;;;;;16.00;4.80;;;;;;;24.74;49.44;100263.88;117357;1182;23576;-66
2022/08/29 00:28:11;;;;;;;11.40;5.10;;;;;;;24.72;49.51;100271.05;117359;1186;23550;-66
2022/08/29 00:30:38;;;;;;;11.50;4.70;;;;;;;24.71;49.66;100271.48;117326;1186;21879;-60
2022/08/29 00:33:05;;;;;;;10.10;4.70;;;;;;;24.70;49.58;100270.63;117140;1185;23580;-66
2022/08/29 00:35:35;;;;;;;13.80;5.00;;;;;;;24.70;49.48;100272.04;116946;1186;21866;-60
2022/08/29 00:38:04;;;;;;;10.30;4.50;;;;;;;24.70;49.39;100266.52;117047;1188;23473;-60
2022/08/29 00:40:41;;;;;;;12.90;4.90;;;;;;;24.69;49.56;100265.11;117156;1186;21854;-60
2022/08/29 00:43:20;;;;;;;10.90;4.50;;;;;;;24.67;49.46;100269.77;117183;1186;21879;-60
2022/08/29 00:46:22;;;;;;;11.00;4.70;;;;;;;24.67;49.33;100269.77;116854;1189;24236;-66
2022/08/29 00:48:56;;;;;;;12.90;5.10;;;;;;;24.65;49.38;100265.75;116950;1186;22927;-65
2022/08/29 00:51:24;;;;;;;13.80;4.60;;;;;;;24.62;49.54;100269.06;117073;1186;22958;-67
2022/08/29 00:53:53;;;;;;;13.90;5.30;;;;;;;24.58;49.59;100268.96;117072;1186;23455;-66
2022/08/29 00:56:19;;;;;;;12.20;4.90;;;;;;;24.55;49.72;100268.30;116991;1188;22068;-60
2022/08/29 00:58:53;;;;;;;11.00;5.40;;;;;;;24.51;49.76;100266.95;117013;1187;21870;-60
2022/08/29 01:01:21;;;;;;;11.40;4.30;;;;;;;24.47;49.78;100262.61;117084;1186;22315;-60
2022/08/29 01:03:49;;;;;;;13.00;5.70;;;;;;;24.44;49.71;100263.02;117239;1183;21858;-60
2022/08/29 01:06:16;;;;;;;14.00;5.40;;;;;;;24.42;49.95;100261.34;117260;1186;21911;-60
2022/08/29 01:08:43;;;;;;;14.00;5.10;;;;;;;24.41;49.83;100259.63;116949;1186;23553;-65
2022/08/29 01:13:58;;;;;;;17.00;5.30;;;;;;;24.36;50.19;100255.14;117039;1187;22218;-60
2022/08/29 01:16:25;;;;;;;13.90;5.30;;;;;;;24.34;50.16;100258.35;117037;1187;22963;-60
2022/08/29 01:18:55;;;;;;;10.60;5.40;;;;;;;24.32;50.16;100257.90;117277;1186;22203;-66
2022/08/29 01:21:44;;;;;;;12.10;4.70;;;;;;;24.32;50.03;100256.11;117261;1186;21888;-60
2022/08/29 01:24:14;;;;;;;9.80;4.90;;;;;;;24.33;50.13;100255.91;117105;1185;21871;-66
2022/08/29 01:26:42;;;;;;;9.50;5.20;;;;;;;24.32;50.18;100254.70;117249;1188;23478;-60
2022/08/29 01:29:09;;;;;;;12.60;5.20;;;;;;;24.30;50.18;100255.21;117281;1185;22812;-66
2022/08/29 01:31:39;;;;;;;13.50;5.10;;;;;;;24.27;50.11;100261.17;116865;1188;22804;-65
2022/08/29 01:34:24;;;;;;;10.70;5.30;;;;;;;24.25;50.30;100262.41;116993;1187;23372;-66
2022/08/29 01:36:57;;;;;;;10.20;5.10;;;;;;;24.23;50.18;100259.16;117365;1186;23557;-66
2022/08/29 01:39:27;;;;;;;9.80;5.10;;;;;;;24.21;50.34;100258.90;117123;1186;23558;-66
2022/08/29 01:41:55;;;;;;;10.80;5.50;;;;;;;24.18;50.25;100262.52;117134;1187;22382;-60
2022/08/29 01:44:24;;;;;;;11.90;5.20;;;;;;;24.15;50.34;100262.73;117206;1182;23589;-66
2022/08/29 01:46:53;;;;;;;18.20;5.20;;;;;;;24.13;50.50;100261.80;117212;1189;21857;-60
2022/08/29 01:49:28;;;;;;;18.20;6.00;;;;;;;24.09;50.71;100261.33;117097;1187;24194;-59
2022/08/29 01:51:55;;;;;;;15.30;5.50;;;;;;;24.06;50.60;100265.29;117166;1186;24248;-65
2022/08/29 01:54:22;;;;;;;17.70;5.70;;;;;;;24.04;50.58;100263.31;117195;1185;22959;-60
2022/08/29 01:56:50;;;;;;;13.20;5.60;;;;;;;24.02;50.76;100260.21;117193;1186;21871;-60
2022/08/29 01:59:20;;;;;;;12.80;5.50;;;;;;;24.04;50.72;100262.42;117137;1187;22669;-65
2022/08/29 02:01:57;;;;;;;7.60;4.90;;;;;;;24.02;50.87;100260.41;117100;1186;22128;-66
2022/08/29 02:04:24;;;;;;;12.80;5.40;;;;;;;24.00;50.91;100260.38;117384;1184;22986;-66
2022/08/29 02:06:51;;;;;;;15.40;5.60;;;;;;;23.98;50.78;100259.58;117241;1183;22903;-59
2022/08/29 02:09:18;;;;;;;15.60;5.90;;;;;;;23.95;51.05;100256.94;116998;1186;24175;-60
2022/08/29 02:11:47;;;;;;;12.00;5.00;;;;;;;23.92;51.02;100256.63;117164;1185;22322;-66
2022/08/29 02:14:14;;;;;;;14.80;5.60;;;;;;;23.86;51.03;100253.59;117312;1182;23553;-60
2022/08/29 02:16:46;;;;;;;12.30;5.10;;;;;;;23.83;51.16;100254.92;117259;1186;21861;-60
2022/08/29 02:19:14;;;;;;;8.80;5.50;;;;;;;23.80;51.02;100254.41;117322;1185;21853;-60
2022/08/29 02:21:41;;;;;;;13.60;5.60;;;;;;;23.79;51.13;100255.39;117275;1183;23582;-60
2022/08/29 02:24:09;;;;;;;15.70;5.60;;;;;;;23.78;51.14;100253.64;117135;1183;23003;-60
2022/08/29 02:26:52;;;;;;;14.40;5.40;;;;;;;23.77;51.35;100255.50;117097;1188;22925;-66
2022/08/29 02:29:20;;;;;;;14.30;5.80;;;;;;;23.76;51.14;100257.35;117195;1186;23500;-59
2022/08/29 02:31:47;;;;;;;13.60;5.20;;;;;;;23.75;51.40;100256.02;117281;1182;22999;-60
2022/08/29 02:34:14;;;;;;;15.60;5.60;;;;;;;23.73;51.39;100260.46;117370;1183;24300;-60
2022/08/29 02:36:42;;;;;;;14.80;6.70;;;;;;;23.70;51.41;100262.92;117088;1188;23456;-66
2022/08/29 02:39:11;;;;;;;12.60;5.70;;;;;;;23.69;51.39;100262.69;117171;1185;21886;-65
2022/08/29 02:41:38;;;;;;;14.30;6.20;;;;;;;23.67;51.63;100263.16;117334;1186;23541;-65
2022/08/29 02:44:10;;;;;;;15.10;5.50;;;;;;;23.65;51.70;100264.92;117242;1186;21864;-59
2022/08/29 02:46:37;;;;;;;11.90;5.80;;;;;;;23.62;51.69;100269.26;117128;1183;23558;-60
2022/08/29 02:49:04;;;;;;;14.30;5.60;;;;;;;23.59;51.84;100273.73;117189;1186;21862;-66
2022/08/29 02:51:32;;;;;;;12.00;5.90;;;;;;;23.55;51.82;100276.02;117193;1182;23576;-65
2022/08/29 02:53:59;;;;;;;10.90;6.00;;;;;;;23.50;52.19;100274.55;117288;1183;24153;-59
2022/08/29 02:56:27;;;;;;;14.80;5.70;;;;;;;23.46;52.28;100277.64;117167;1188;22813;-65
2022/08/29 02:58:54;;;;;;;16.40;6.10;;;;;;;23.44;52.38;100279.39;117277;1186;21854;-59
2022/08/29 03:01:22;;;;;;;12.20;5.40;;;;;;;23.44;52.07;100284.23;117318;1182;23456;-59
2022/08/29 03:03:49;;;;;;;16.40;5.80;;;;;;;23.45;52.11;100285.60;117254;1185;22030;-59
2022/08/29 03:06:17;;;;;;;18.10;6.30;;;;;;;23.46;52.33;100287.32;117111;1185;21850;-65
2022/08/29 03:08:44;;;;;;;15.90;5.40;;;;;;;23.47;52.42;100287.09;117161;1182;23569;-66
2022/08/29 03:11:12;;;;;;;13.70;6.40;;;;;;;23.47;52.45;100288.69;117026;1186;23044;-60
2022/08/29 03:13:39;;;;;;;14.50;6.30;;;;;;;23.49;52.42;100288.95;117324;1186;21885;-60
2022/08/29 03:16:07;;;;;;;18.10;6.30;;;;;;;23.51;52.35;100293.81;117105;1188;22911;-65
2022/08/29 03:18:35;;;;;;;18.60;6.10;;;;;;;23.52;52.27;100294.81;117078;1187;22985;-59
2022/08/29 03:21:02;;;;;;;18.90;6.40;;;;;;;23.52;52.26;100296.41;118869;1187;24256;-60
2022/08/29 03:23:29;;;;;;;18.60;6.30;;;;;;;23.52;52.22;100300.55;116982;1186;22947;-66
2022/08/29 03:25:56;;;;;;;14.30;5.90;;;;;;;23.51;52.18;100303.48;119185;1186;21854;-60
2022/08/29 03:28:24;;;;;;;17.90;5.70;;;;;;;23.50;52.31;100309.26;119347;1184;21696;-60
2022/08/29 03:30:50;;;;;;;15.50;6.00;;;;;;;23.49;52.23;100306.49;119431;1185;22300;-60
2022/08/29 03:33:18;;;;;;;14.80;5.70;;;;;;;23.48;52.22;100306.91;119105;1182;21826;-60
2022/08/29 03:35:45;;;;;;;20.00;5.90;;;;;;;23.50;52.17;100310.55;118813;1182;22926;-66
2022/08/29 03:38:12;;;;;;;26.80;6.50;;;;;;;23.52;52.09;100307.91;117009;1186;23693;-60
2022/08/29 03:40:41;;;;;;;16.70;6.30;;;;;;;23.55;52.15;100313.05;117069;1186;21868;-59
2022/08/29 03:43:08;;;;;;;17.00;6.00;;;;;;;23.59;52.15;100314.02;117243;1186;23233;-64
2022/08/29 03:45:35;;;;;;;18.10;6.50;;;;;;;23.63;51.99;100314.51;117095;1186;23579;-60
2022/08/29 03:48:03;;;;;;;19.20;6.30;;;;;;;23.67;52.01;100314.60;117199;1182;24210;-66
2022/08/29 03:50:30;;;;;;;16.10;6.10;;;;;;;23.72;52.11;100314.39;117290;1184;23569;-64
2022/08/29 03:52:58;;;;;;;25.10;5.70;;;;;;;23.85;51.77;100316.96;117117;1183;24280;-65
2022/08/29 03:55:25;;;;;;;18.80;6.50;;;;;;;23.91;51.60;100317.77;117378;1181;22938;-64
2022/08/29 03:57:54;;;;;;;21.90;6.60;;;;;;;23.94;51.60;100317.05;117171;1186;23593;-60
2022/08/29 04:00:22;;;;;;;26.70;6.50;;;;;;;23.96;51.77;100317.95;117256;1182;22941;-62
2022/08/29 04:02:52;;;;;;;25.60;6.10;;;;;;;24.01;51.43;100317.64;117096;1188;24229;-65
2022/08/29 04:05:19;;;;;;;21.20;6.20;;;;;;;24.06;51.46;100316.98;117354;1185;23004;-59
2022/08/29 04:07:52;;;;;;;15.60;6.10;;;;;;;24.09;51.42;100315.15;117311;1183;23445;-60
2022/08/29 04:10:30;;;;;;;15.40;6.10;;;;;;;24.11;51.30;100316.93;117240;1183;23911;-59
2022/08/29 04:12:58;;;;;;;16.90;5.40;;;;;;;24.14;51.27;100318.16;117184;1186;23554;-59
2022/08/29 04:15:26;;;;;;;13.20;5.10;;;;;;;24.18;51.23;100315.38;117356;1186;22989;-59
2022/08/29 04:17:56;;;;;;;17.50;5.90;;;;;;;24.22;51.15;100315.48;117375;1182;21895;-59
2022/08/29 04:20:27;;;;;;;11.30;5.50;;;;;;;24.26;51.01;100323.10;117252;1182;23652;-64
2022/08/29 04:22:54;;;;;;;15.30;5.60;;;;;;;24.30;50.88;100320.85;117300;1185;23353;-59
2022/08/29 04:25:21;;;;;;;13.40;5.80;;;;;;;24.36;50.75;100326.72;117183;1186;23606;-60
2022/08/29 04:27:49;;;;;;;15.70;5.30;;;;;;;24.41;50.62;100327.75;117120;1186;22678;-66
2022/08/29 04:30:18;;;;;;;12.60;5.50;;;;;;;24.48;50.64;100321.73;118727;1184;21806;-66
2022/08/29 04:32:46;;;;;;;15.50;5.20;;;;;;;24.56;50.44;100325.07;117643;1182;23464;-66
2022/08/29 04:35:13;;;;;;;12.70;5.60;;;;;;;24.64;50.17;100324.11;117440;1188;22729;-61
2022/08/29 04:37:40;;;;;;;12.10;5.10;;;;;;;24.74;50.15;100322.56;116990;1187;21884;-65
2022/08/29 04:40:08;;;;;;;16.70;5.60;;;;;;;24.84;49.96;100324.55;117028;1186;23661;-65
2022/08/29 04:42:36;;;;;;;17.30;5.60;;;;;;;24.95;49.81;100322.28;117033;1187;22637;-65
2022/08/29 04:45:05;;;;;;;16.40;5.40;;;;;;;25.09;49.56;100322.75;116981;1187;22565;-65
2022/08/29 04:47:36;;;;;;;19.00;5.70;;;;;;;25.22;49.37;100321.39;117565;1187;24525;-65
2022/08/29 04:50:04;;;;;;;16.20;5.50;;;;;;;25.35;49.19;100319.17;117101;1186;21861;-65
2022/08/29 04:52:31;;;;;;;12.80;5.50;;;;;;;25.48;48.95;100322.70;117362;1185;22809;-65
2022/08/29 04:54:59;;;;;;;10.20;5.10;;;;;;;25.61;48.82;100326.38;117123;1187;21861;-61
2022/08/29 04:57:26;;;;;;;15.10;4.80;;;;;;;25.75;48.60;100326.19;117072;1188;21866;-61
2022/08/29 04:59:55;;;;;;;11.70;4.90;;;;;;;25.90;48.24;100323.83;117053;1187;21958;-60
2022/08/29 05:02:23;;;;;;;17.10;5.20;;;;;;;26.06;48.06;100324.71;117322;1186;21864;-61
2022/08/29 05:04:51;;;;;;;18.10;5.10;;;;;;;26.23;47.98;100324.85;117148;1188;21862;-61
2022/08/29 05:07:24;;;;;;;11.50;5.00;;;;;;;26.41;47.67;100324.71;117238;1186;21861;-61
2022/08/29 05:09:57;;;;;;;8.00;4.60;;;;;;;26.60;47.20;100323.73;117050;1186;21951;-61
2022/08/29 05:12:26;;;;;;;13.40;4.40;;;;;;;26.84;47.01;100322.23;117101;1185;23453;-61
2022/08/29 05:14:53;;;;;;;12.30;4.80;;;;;;;27.02;46.91;100322.55;117105;1183;21866;-61
2022/08/29 05:17:21;;;;;;;12.90;4.90;;;;;;;27.19;46.58;100320.08;117145;1183;21859;-61
2022/08/29 05:19:48;;;;;;;11.80;4.70;;;;;;;27.37;46.42;100323.61;117071;1183;23721;-61
2022/08/29 05:22:16;;;;;;;14.00;5.00;;;;;;;27.54;46.16;100322.77;117108;1187;22937;-61
2022/08/29 05:24:44;;;;;;;12.20;5.00;;;;;;;27.71;45.75;100323.61;117288;1182;21905;-66
2022/08/29 05:27:17;;;;;;;14.90;4.40;;;;;;;27.88;45.41;100324.73;117276;1188;22846;-61
2022/08/29 05:29:45;;;;;;;14.70;5.80;;;;;;;28.03;45.32;100327.06;117252;1187;23457;-61
2022/08/29 05:32:17;;;;;;;13.50;5.40;;;;;;;28.16;45.09;100326.30;117154;1182;21857;-61
2022/08/29 05:34:45;;;;;;;15.70;5.80;;;;;;;28.31;44.73;100327.90;117011;1182;22097;-60
2022/08/29 05:37:14;;;;;;;11.60;4.80;;;;;;;28.47;44.33;100324.19;117031;1186;21854;-61
2022/08/29 05:39:41;;;;;;;13.00;5.20;;;;;;;28.64;43.92;100324.81;117041;1187;23736;-66
2022/08/29 05:42:09;;;;;;;15.40;4.60;;;;;;;28.81;43.54;100324.56;119074;1186;21816;-62
2022/08/29 05:44:37;;;;;;;14.30;5.00;;;;;;;29.03;43.49;100329.33;116998;1183;22633;-61
2022/08/29 05:47:07;;;;;;;18.10;4.90;;;;;;;29.22;43.00;100329.02;117277;1186;21869;-67
2022/08/29 05:49:36;;;;;;;16.80;5.10;;;;;;;29.42;42.61;100331.70;118448;1186;21861;-61
2022/08/29 05:52:03;;;;;;;18.80;4.60;;;;;;;29.63;42.04;100331.92;117010;1186;21873;-61
2022/08/29 05:54:33;;;;;;;11.70;4.60;;;;;;;29.78;40.97;100332.70;118146;1186;21862;-61
2022/08/29 05:57:00;;;;;;;11.40;4.90;;;;;;;29.96;41.12;100332.61;117079;1181;21866;-67
2022/08/29 05:59:27;;;;;;;14.60;5.50;;;;;;;30.17;41.37;100336.86;117028;1182;23532;-61
2022/08/29 06:01:55;;;;;;;11.60;5.30;;;;;;;30.43;41.36;100336.53;117019;1184;22612;-67
2022/08/29 06:04:23;;;;;;;15.30;5.30;;;;;;;30.70;40.73;100339.48;117188;1187;22990;-61
2022/08/29 06:06:50;;;;;;;14.30;4.60;;;;;;;30.99;40.31;100337.73;117068;1186;21869;-63
2022/08/29 06:09:17;;;;;;;11.90;4.70;;;;;;;31.25;39.69;100339.42;117042;1187;21864;-60
2022/08/29 06:11:46;;;;;;;17.00;4.90;;;;;;;31.43;39.83;100345.43;117157;1183;21900;-60
2022/08/29 06:14:14;;;;;;;15.30;4.40;;;;;;;31.63;39.65;100341.39;116961;1187;21905;-61
2022/08/29 06:16:41;;;;;;;11.80;4.20;;;;;;;31.87;38.86;100344.56;117068;1186;21861;-67
2022/08/29 06:19:08;;;;;;;10.10;3.60;;;;;;;32.07;38.65;100344.54;117078;1186;22899;-61
2022/08/29 06:21:35;;;;;;;9.90;3.70;;;;;;;32.26;38.51;100345.85;117270;1185;22924;-61
2022/08/29 06:24:04;;;;;;;9.70;4.00;;;;;;;32.45;37.98;100346.41;117236;1182;23653;-60
2022/08/29 06:26:30;;;;;;;14.80;4.30;;;;;;;32.66;37.17;100345.96;117036;1186;21859;-68
2022/08/29 06:28:58;;;;;;;14.70;5.60;;;;;;;32.79;36.37;100348.83;117164;1184;23582;-68
2022/08/29 06:31:27;;;;;;;12.30;4.00;;;;;;;32.89;36.63;100346.48;117059;1183;23557;-60
2022/08/29 06:33:59;;;;;;;29.00;6.40;;;;;;;33.09;36.61;100344.71;117180;1186;22921;-61
2022/08/29 06:36:27;;;;;;;10.60;3.60;;;;;;;33.31;35.87;100348.51;117018;1185;22649;-61
2022/08/29 06:38:56;;;;;;;10.30;4.80;;;;;;;33.48;35.74;100352.26;117227;1186;21861;-61
2022/08/29 06:41:23;;;;;;;10.50;5.10;;;;;;;33.66;35.75;100348.74;117218;1184;22745;-67
2022/08/29 06:43:51;;;;;;;9.80;4.20;;;;;;;33.82;35.50;100348.92;117300;1182;21971;-68
2022/08/29 06:46:29;;;;;;;15.30;5.10;;;;;;;33.96;34.99;100352.90;117316;1183;21990;-62
2022/08/29 06:48:57;;;;;;;9.70;4.50;;;;;;;34.09;34.40;100351.62;117135;1186;24174;-62
2022/08/29 06:51:24;;;;;;;9.30;3.90;;;;;;;34.17;34.52;100353.19;118543;1187;23729;-66
2022/08/29 06:53:52;;;;;;;10.00;3.80;;;;;;;34.29;34.02;100355.38;119300;1182;21680;-67
2022/08/29 06:56:19;;;;;;;11.50;4.10;;;;;;;34.55;33.38;100354.54;119014;1183;21866;-66
2022/08/29 06:58:46;;;;;;;8.90;3.90;;;;;;;34.61;33.85;100361.02;119413;1185;21728;-67
2022/08/29 07:01:15;;;;;;;10.10;4.40;;;;;;;34.68;33.49;100363.63;117459;1185;21867;-68
2022/08/29 07:03:43;;;;;;;9.00;4.30;;;;;;;34.76;33.17;100362.72;117121;1187;21863;-62
2022/08/29 07:06:10;;;;;;;10.00;4.10;;;;;;;34.87;32.79;100359.50;117122;1183;23547;-68
2022/08/29 07:08:37;;;;;;;11.00;4.20;;;;;;;35.00;32.80;100365.20;117199;1188;23887;-61
2022/08/29 07:11:25;;;;;;;10.90;4.20;;;;;;;35.07;33.06;100365.36;117172;1186;21858;-62
2022/08/29 07:13:55;;;;;;;9.00;4.00;;;;;;;35.11;31.86;100364.14;116986;1186;23544;-68
2022/08/29 07:16:23;;;;;;;11.20;4.00;;;;;;;35.16;32.21;100363.61;117260;1185;23470;-68
2022/08/29 07:18:53;;;;;;;10.80;3.70;;;;;;;35.34;32.18;100363.20;117233;1185;21941;-63
2022/08/29 07:21:22;;;;;;;13.20;4.20;;;;;;;35.54;32.31;100362.04;117313;1185;22622;-68
2022/08/29 07:23:50;;;;;;;10.60;4.20;;;;;;;35.70;32.14;100366.82;117093;1182;23633;-68
2022/08/29 07:26:19;;;;;;;9.20;3.90;;;;;;;35.84;31.60;100366.02;117222;1182;21855;-68
2022/08/29 07:28:47;;;;;;;7.20;4.10;;;;;;;36.04;30.30;100365.11;117089;1188;21862;-68
2022/08/29 07:31:16;;;;;;;7.60;4.10;;;;;;;36.28;30.61;100365.63;117320;1185;23583;-68
2022/08/29 07:33:43;;;;;;;13.30;3.80;;;;;;;36.45;30.78;100365.39;117062;1186;22480;-68
2022/08/29 07:36:11;;;;;;;11.60;4.20;;;;;;;36.56;30.66;100362.88;116986;1187;21869;-62
2022/08/29 07:38:39;;;;;;;10.30;4.10;;;;;;;36.67;30.45;100365.30;117125;1183;21864;-68
2022/08/29 07:41:09;;;;;;;11.10;4.00;;;;;;;36.85;30.47;100367.50;117094;1184;23579;-64
2022/08/29 07:43:36;;;;;;;12.10;4.20;;;;;;;37.08;30.64;100370.27;117101;1186;22654;-68
2022/08/29 07:46:07;;;;;;;10.10;4.90;;;;;;;37.27;29.67;100372.27;117154;1187;21907;-64
2022/08/29 07:48:35;;;;;;;10.80;4.70;;;;;;;37.40;30.03;100369.35;117396;1186;21869;-64
2022/08/29 07:51:09;;;;;;;11.60;4.50;;;;;;;37.43;29.64;100368.06;117371;1182;23479;-67
2022/08/29 07:53:37;;;;;;;14.60;5.00;;;;;;;37.53;29.36;100366.73;117010;1186;22659;-64
2022/08/29 07:56:08;;;;;;;11.20;3.70;;;;;;;37.69;29.70;100369.21;117111;1186;21888;-69
2022/08/29 07:58:35;;;;;;;15.90;4.20;;;;;;;37.88;29.37;100369.34;117206;1186;22611;-68
2022/08/29 08:01:04;;;;;;;8.90;3.70;;;;;;;38.02;29.05;100368.31;117130;1185;22930;-69
2022/08/29 08:03:32;;;;;;;10.60;4.00;;;;;;;38.20;28.11;100370.70;117055;1185;21858;-68
2022/08/29 08:05:59;;;;;;;12.60;3.50;;;;;;;38.36;28.28;100372.88;117003;1187;23698;-67
2022/08/29 08:08:32;;;;;;;14.40;4.60;;;;;;;38.50;28.88;100374.55;116940;1186;21859;-63
2022/08/29 08:11:02;;;;;;;12.10;3.60;;;;;;;38.74;28.67;100373.21;117030;1186;21855;-63
2022/08/29 08:13:31;;;;;;;9.90;3.80;;;;;;;39.07;27.96;100374.95;117012;1187;21858;-67
2022/08/29 08:16:01;;;;;;;10.80;4.00;;;;;;;39.26;27.37;100376.91;117001;1188;22642;-65
2022/08/29 08:18:29;;;;;;;19.00;3.80;;;;;;;39.24;27.54;100374.95;117006;1185;22737;-68
2022/08/29 08:20:56;;;;;;;11.10;4.20;;;;;;;39.17;26.99;100372.14;117092;1187;22639;-69
2022/08/29 08:23:23;;;;;;;12.20;4.20;;;;;;;39.20;26.73;100375.75;117021;1186;21869;-68
2022/08/29 08:25:50;;;;;;;11.00;3.90;;;;;;;39.31;26.94;100377.36;117034;1184;23453;-68
2022/08/29 08:28:17;;;;;;;8.30;3.70;;;;;;;39.41;26.67;100372.08;117066;1186;23678;-65
2022/08/29 08:30:46;;;;;;;10.40;3.90;;;;;;;39.68;26.78;100369.98;117044;1187;24303;-68
2022/08/29 08:33:13;;;;;;;7.70;3.60;;;;;;;39.90;26.91;100372.15;116821;1187;21881;-65
2022/08/29 08:35:40;;;;;;;10.10;3.70;;;;;;;40.01;26.56;100372.60;117080;1184;22928;-68
2022/08/29 08:38:09;;;;;;;9.50;3.80;;;;;;;40.17;26.78;100373.64;117151;1186;23663;-69
2022/08/29 08:40:41;;;;;;;8.90;3.50;;;;;;;40.35;26.54;100370.95;117370;1183;22165;-69
2022/08/29 08:43:08;;;;;;;9.10;4.50;;;;;;;40.54;26.56;100365.36;117163;1186;21861;-69
2022/08/29 08:45:37;;;;;;;10.80;3.90;;;;;;;40.71;26.20;100369.23;117135;1182;24284;-66
2022/08/29 08:48:33;;;;;;;11.90;3.70;;;;;;;40.72;25.53;100373.53;117250;1181;22924;-65
2022/08/29 08:51:05;;;;;;;8.10;3.50;;;;;;;40.84;24.86;100374.57;117244;1185;22699;-68
2022/08/29 08:53:40;;;;;;;11.60;4.20;;;;;;;40.97;24.17;100376.02;117186;1185;23579;-65
2022/08/29 08:56:17;;;;;;;7.30;4.00;;;;;;;41.07;25.05;100379.23;117367;1186;21852;-66
2022/08/29 08:59:12;;;;;;;5.90;3.70;;;;;;;41.08;25.39;100377.07;117188;1182;24136;-66
2022/08/29 09:01:55;;;;;;;9.70;3.60;;;;;;;41.16;24.75;100372.02;117173;1184;21884;-68
2022/08/29 09:04:38;;;;;;;9.30;3.60;;;;;;;41.24;25.13;100374.15;118210;1186;22927;-69
2022/08/29 09:07:24;;;;;;;14.50;3.90;;;;;;;41.50;25.51;100375.07;118050;1185;22938;-65
2022/08/29 09:10:24;;;;;;;13.10;3.70;;;;;;;41.82;25.21;100372.15;117211;1186;24769;-69
2022/08/29 09:13:17;;;;;;;13.20;3.50;;;;;;;42.04;24.68;100377.35;117038;1186;21883;-65
2022/08/29 09:15:45;;;;;;;9.30;3.70;;;;;;;42.17;24.61;100376.81;117244;1186;22919;-65
2022/08/29 09:18:22;;;;;;;11.70;4.20;;;;;;;42.38;24.62;100372.94;117249;1188;21855;-69
2022/08/29 09:20:50;;;;;;;10.50;4.20;;;;;;;42.55;24.33;100371.93;117290;1186;22991;-65
2022/08/29 09:23:30;;;;;;;11.50;3.50;;;;;;;42.67;24.26;100374.15;117125;1186;21856;-69
2022/08/29 09:25:57;;;;;;;10.30;3.40;;;;;;;42.73;23.63;100375.77;117227;1186;21858;-70
2022/08/29 09:28:25;;;;;;;8.60;3.90;;;;;;;42.65;22.92;100373.94;117229;1186;22925;-66
2022/08/29 09:31:36;;;;;;;12.70;3.80;;;;;;;42.55;22.51;100372.83;117291;1185;21888;-65
2022/08/29 09:34:09;;;;;;;11.10;4.30;;;;;;;42.56;23.29;100370.09;116839;1188;23598;-69
2022/08/29 09:36:48;;;;;;;8.40;3.60;;;;;;;42.78;23.01;100367.30;116569;1189;21861;-70
2022/08/29 09:39:23;;;;;;;8.00;3.70;;;;;;;42.93;22.23;100366.56;117496;1185;22117;-70
2022/08/29 09:41:56;;;;;;;9.80;3.80;;;;;;;42.82;22.41;100365.69;118991;1187;21893;-65
2022/08/29 09:44:24;;;;;;;10.20;3.90;;;;;;;42.54;22.46;100364.28;117096;1188;22915;-68
2022/08/29 09:47:10;;;;;;;11.40;4.10;;;;;;;42.41;22.24;100362.39;117058;1182;23583;-67
2022/08/29 09:49:40;;;;;;;9.70;3.50;;;;;;;42.20;22.37;100360.94;117131;1186;21882;-65
2022/08/29 09:52:10;;;;;;;13.50;4.60;;;;;;;42.15;22.25;100361.56;119186;1186;22298;-66
2022/08/29 09:54:37;;;;;;;10.60;4.20;;;;;;;42.18;22.36;100365.06;119171;1182;21842;-67
2022/08/29 09:57:17;;;;;;;12.20;4.00;;;;;;;42.42;22.53;100360.80;118847;1187;23286;-65
2022/08/29 09:59:44;;;;;;;;;;;;;;;42.66;21.96;100360.94;116800;1187;21920;-69
2022/08/29 10:02:31;;;;;;;7.50;3.80;;;;;;;42.69;21.20;100363.49;117758;1187;22938;-64
2022/08/29 10:05:08;;;;;;;13.70;3.80;;;;;;;42.63;21.78;100366.21;117081;1187;22458;-70
2022/08/29 10:07:47;;;;;;;9.70;4.00;;;;;;;42.60;21.55;100364.72;117100;1186;21856;-71
2022/08/29 10:10:15;;;;;;;9.40;5.00;;;;;;;42.84;21.56;100367.70;117085;1187;22655;-66
2022/08/29 10:13:12;;;;;;;16.40;10.60;;;;;;;42.96;21.17;100361.32;117156;1186;22938;-70
2022/08/29 10:15:46;;;;;;;10.00;5.20;;;;;;;42.87;21.36;100359.69;117163;1185;22935;-65
2022/08/29 10:18:28;;;;;;;7.70;4.20;;;;;;;42.86;21.40;100361.34;117215;1182;21857;-70
2022/08/29 10:21:39;;;;;;;7.20;4.60;;;;;;;42.96;20.97;100357.45;117070;1185;23561;-65
2022/08/29 10:24:07;;;;;;;8.80;3.80;;;;;;;43.07;21.24;100355.91;117090;1186;22946;-69
2022/08/29 10:27:15;;;;;;;7.20;3.60;;;;;;;43.12;20.45;100356.14;117047;1182;23557;-69
2022/08/29 10:29:49;;;;;;;9.10;3.40;;;;;;;42.95;20.71;100358.98;117125;1186;21862;-66
2022/08/29 10:32:23;;;;;;;11.00;4.10;;;;;;;42.91;20.77;100356.92;117072;1187;23560;-67
2022/08/29 10:35:49;;;;;;;9.00;3.60;;;;;;;42.95;20.92;100360.31;117013;1184;22913;-70
2022/08/29 10:38:39;;;;;;;6.80;3.80;;;;;;;43.22;21.39;100355.29;116670;1190;21989;-66
2022/08/29 10:41:24;;;;;;;9.40;4.20;;;;;;;43.56;21.41;100355.32;116994;1188;21901;-70
2022/08/29 10:44:01;;;;;;;8.30;3.60;;;;;;;43.82;21.28;100352.02;117099;1186;23650;-66
2022/08/29 10:46:52;;;;;;;15.80;3.90;;;;;;;44.12;21.08;100353.77;117087;1184;21861;-69
2022/08/29 10:49:35;;;;;;;9.50;3.50;;;;;;;44.31;20.95;100353.23;116934;1187;21860;-66
2022/08/29 10:52:11;;;;;;;13.20;3.90;;;;;;;44.42;20.36;100350.68;117061;1183;22928;-66
2022/08/29 10:54:57;;;;;;;9.80;3.80;;;;;;;44.41;20.44;100355.44;117064;1183;23531;-67
2022/08/29 10:57:46;;;;;;;6.90;3.70;;;;;;;44.43;20.42;100353.38;117076;1184;21896;-69
2022/08/29 11:00:19;;;;;;;10.90;3.80;;;;;;;44.45;19.82;100350.37;117027;1182;21859;-70
2022/08/29 11:03:05;;;;;;;8.00;4.70;;;;;;;44.34;19.75;100350.41;117165;1186;23702;-67
2022/08/29 11:05:38;;;;;;;9.10;4.10;;;;;;;44.07;19.11;100349.77;117037;1185;24179;-69
2022/08/29 11:08:29;;;;;;;11.20;4.70;;;;;;;43.84;19.97;100344.79;117564;1183;22616;-67
2022/08/29 11:10:56;;;;;;;22.30;4.70;;;;;;;43.91;19.91;100345.79;116965;1187;22842;-71
2022/08/29 11:13:30;;;;;;;11.50;4.40;;;;;;;44.09;20.15;100343.98;116932;1186;21859;-67
2022/08/29 11:16:43;;;;;;;7.90;3.80;;;;;;;44.32;20.00;100339.65;116900;1187;24178;-67
2022/08/29 11:19:25;;;;;;;6.10;3.40;;;;;;;44.34;19.69;100333.99;117094;1186;22811;-69
2022/08/29 11:21:54;;;;;;;11.40;3.80;;;;;;;44.27;19.70;100333.08;117020;1184;21874;-67
2022/08/29 11:24:22;;;;;;;11.70;4.60;;;;;;;44.34;19.61;100325.51;117180;1187;22925;-66
2022/08/29 11:27:03;;;;;;;11.00;4.10;;;;;;;44.42;19.53;100323.66;116893;1186;24169;-69
2022/08/29 11:29:40;;;;;;;13.10;4.20;;;;;;;44.39;18.88;100325.66;117092;1184;22971;-67
2022/08/29 11:32:44;;;;;;;10.50;3.70;;;;;;;44.26;18.88;100327.95;116891;1184;22656;-69
2022/08/29 11:35:16;;;;;;;12.60;3.90;;;;;;;44.00;18.92;100327.03;117038;1187;22971;-70